sensor_id;sensor_type;location;lat;lon;timestamp;P1;durP1;ratioP1;P2;durP2;ratioP2
68074;SDS011;54864;52.002;5.468;2023-03-01T00:00:36;13.23;;;10.15;;
68074;SDS011;54864;52.002;5.468;2023-03-01T00:01:38;12.23;;;9.90;;
68074;SDS011;54864;52.002;5.468;2023-03-01T00:02:38;16.27;;;10.40;;
68074;SDS011;54864;52.002;5.468;2023-03-01T00:03:41;13.02;;;9.95;;
68074;SDS011;54864;52.002;5.468;2023-03-01T00:04:43;16.55;;;10.98;;
68074;SDS011;54864;52.002;5.468;2023-03-01T00:05:45;13.55;;;10.23;;
68074;SDS011;54864;52.002;5.468;2023-03-01T00:06:46;17.27;;;11.18;;
68074;SDS011;54864;52.002;5.468;2023-03-01T00:07:48;14.27;;;10.38;;
68074;SDS011;54864;52.002;5.468;2023-03-01T00:08:52;13.50;;;10.40;;
68074;SDS011;54864;52.002;5.468;2023-03-01T00:09:54;15.77;;;11.23;;
68074;SDS011;54864;52.002;5.468;2023-03-01T00:11:01;13.40;;;10.27;;
68074;SDS011;54864;52.002;5.468;2023-03-01T00:12:04;14.25;;;10.65;;
68074;SDS011;54864;52.002;5.468;2023-03-01T00:13:07;13.52;;;10.45;;
68074;SDS011;54864;52.002;5.468;2023-03-01T00:14:07;13.17;;;10.17;;
68074;SDS011;54864;52.002;5.468;2023-03-01T00:15:10;12.40;;;10.02;;
68074;SDS011;54864;52.002;5.468;2023-03-01T00:16:12;14.38;;;10.77;;
68074;SDS011;54864;52.002;5.468;2023-03-01T00:17:16;15.65;;;10.75;;
68074;SDS011;54864;52.002;5.468;2023-03-01T00:18:17;13.05;;;10.02;;
68074;SDS011;54864;52.002;5.468;2023-03-01T00:19:20;14.77;;;10.65;;
68074;SDS011;54864;52.002;5.468;2023-03-01T00:20:22;13.77;;;10.55;;
68074;SDS011;54864;52.002;5.468;2023-03-01T00:21:23;13.95;;;10.85;;
68074;SDS011;54864;52.002;5.468;2023-03-01T00:22:26;15.68;;;10.50;;
68074;SDS011;54864;52.002;5.468;2023-03-01T00:23:28;14.30;;;10.25;;
68074;SDS011;54864;52.002;5.468;2023-03-01T00:24:29;15.13;;;11.07;;
68074;SDS011;54864;52.002;5.468;2023-03-01T00:25:31;12.95;;;10.18;;
68074;SDS011;54864;52.002;5.468;2023-03-01T00:26:31;16.57;;;11.10;;
68074;SDS011;54864;52.002;5.468;2023-03-01T00:27:33;12.23;;;10.07;;
68074;SDS011;54864;52.002;5.468;2023-03-01T00:28:34;13.05;;;10.40;;
68074;SDS011;54864;52.002;5.468;2023-03-01T00:29:36;13.95;;;10.63;;
68074;SDS011;54864;52.002;5.468;2023-03-01T00:30:37;13.77;;;10.20;;
68074;SDS011;54864;52.002;5.468;2023-03-01T00:31:38;13.07;;;10.63;;
68074;SDS011;54864;52.002;5.468;2023-03-01T00:32:39;14.73;;;10.70;;
68074;SDS011;54864;52.002;5.468;2023-03-01T00:33:41;15.90;;;10.53;;
68074;SDS011;54864;52.002;5.468;2023-03-01T00:34:47;16.10;;;10.32;;
68074;SDS011;54864;52.002;5.468;2023-03-01T00:35:54;12.90;;;10.27;;
68074;SDS011;54864;52.002;5.468;2023-03-01T00:36:54;12.33;;;10.50;;
68074;SDS011;54864;52.002;5.468;2023-03-01T00:38:05;14.60;;;10.63;;
68074;SDS011;54864;52.002;5.468;2023-03-01T00:39:09;12.45;;;10.15;;
68074;SDS011;54864;52.002;5.468;2023-03-01T00:40:12;14.18;;;10.20;;
68074;SDS011;54864;52.002;5.468;2023-03-01T00:41:17;15.13;;;11.43;;
68074;SDS011;54864;52.002;5.468;2023-03-01T00:42:20;15.20;;;10.45;;
68074;SDS011;54864;52.002;5.468;2023-03-01T00:43:22;14.32;;;10.70;;
68074;SDS011;54864;52.002;5.468;2023-03-01T00:44:23;16.02;;;10.32;;
68074;SDS011;54864;52.002;5.468;2023-03-01T00:45:24;14.65;;;10.63;;
68074;SDS011;54864;52.002;5.468;2023-03-01T00:46:27;15.45;;;10.45;;
68074;SDS011;54864;52.002;5.468;2023-03-01T00:47:30;16.50;;;10.57;;
68074;SDS011;54864;52.002;5.468;2023-03-01T00:48:34;17.83;;;10.52;;
68074;SDS011;54864;52.002;5.468;2023-03-01T00:49:36;12.05;;;9.98;;
68074;SDS011;54864;52.002;5.468;2023-03-01T00:50:38;17.83;;;10.10;;
68074;SDS011;54864;52.002;5.468;2023-03-01T00:51:40;14.32;;;10.60;;
68074;SDS011;54864;52.002;5.468;2023-03-01T00:52:41;15.73;;;10.55;;
68074;SDS011;54864;52.002;5.468;2023-03-01T00:53:43;13.30;;;10.13;;
68074;SDS011;54864;52.002;5.468;2023-03-01T00:54:44;15.43;;;10.70;;
68074;SDS011;54864;52.002;5.468;2023-03-01T00:55:46;14.63;;;10.05;;
68074;SDS011;54864;52.002;5.468;2023-03-01T00:56:47;14.07;;;10.23;;
68074;SDS011;54864;52.002;5.468;2023-03-01T00:57:49;14.93;;;10.30;;
68074;SDS011;54864;52.002;5.468;2023-03-01T00:58:49;14.48;;;10.43;;
68074;SDS011;54864;52.002;5.468;2023-03-01T00:59:52;12.43;;;10.60;;
68074;SDS011;54864;52.002;5.468;2023-03-01T01:00:52;13.45;;;9.50;;
68074;SDS011;54864;52.002;5.468;2023-03-01T01:01:54;12.73;;;9.77;;
68074;SDS011;54864;52.002;5.468;2023-03-01T01:02:55;13.85;;;9.93;;
68074;SDS011;54864;52.002;5.468;2023-03-01T01:03:58;13.07;;;9.65;;
68074;SDS011;54864;52.002;5.468;2023-03-01T01:05:03;13.85;;;10.20;;
68074;SDS011;54864;52.002;5.468;2023-03-01T01:06:08;16.90;;;10.43;;
68074;SDS011;54864;52.002;5.468;2023-03-01T01:07:14;14.37;;;9.90;;
68074;SDS011;54864;52.002;5.468;2023-03-01T01:08:16;14.82;;;10.25;;
68074;SDS011;54864;52.002;5.468;2023-03-01T01:09:17;13.63;;;10.30;;
68074;SDS011;54864;52.002;5.468;2023-03-01T01:10:19;12.93;;;10.02;;
68074;SDS011;54864;52.002;5.468;2023-03-01T01:11:20;11.43;;;9.02;;
68074;SDS011;54864;52.002;5.468;2023-03-01T01:12:22;13.00;;;9.57;;
68074;SDS011;54864;52.002;5.468;2023-03-01T01:13:23;13.77;;;9.88;;
68074;SDS011;54864;52.002;5.468;2023-03-01T01:14:25;12.13;;;9.65;;
68074;SDS011;54864;52.002;5.468;2023-03-01T01:15:25;12.82;;;9.98;;
68074;SDS011;54864;52.002;5.468;2023-03-01T01:16:28;15.02;;;10.50;;
68074;SDS011;54864;52.002;5.468;2023-03-01T01:17:29;13.65;;;10.27;;
68074;SDS011;54864;52.002;5.468;2023-03-01T01:18:31;12.02;;;9.82;;
68074;SDS011;54864;52.002;5.468;2023-03-01T01:19:31;11.85;;;9.15;;
68074;SDS011;54864;52.002;5.468;2023-03-01T01:20:35;14.30;;;9.65;;
68074;SDS011;54864;52.002;5.468;2023-03-01T01:21:38;12.50;;;9.60;;
68074;SDS011;54864;52.002;5.468;2023-03-01T01:22:40;14.02;;;9.98;;
68074;SDS011;54864;52.002;5.468;2023-03-01T01:23:41;12.15;;;9.93;;
68074;SDS011;54864;52.002;5.468;2023-03-01T01:24:45;13.60;;;10.10;;
68074;SDS011;54864;52.002;5.468;2023-03-01T01:25:45;13.80;;;9.85;;
68074;SDS011;54864;52.002;5.468;2023-03-01T01:26:47;12.93;;;10.07;;
68074;SDS011;54864;52.002;5.468;2023-03-01T01:27:48;13.38;;;9.90;;
68074;SDS011;54864;52.002;5.468;2023-03-01T01:28:50;15.20;;;10.82;;
68074;SDS011;54864;52.002;5.468;2023-03-01T01:29:52;12.20;;;9.50;;
68074;SDS011;54864;52.002;5.468;2023-03-01T01:30:54;15.30;;;10.38;;
68074;SDS011;54864;52.002;5.468;2023-03-01T01:31:54;12.23;;;9.73;;
68074;SDS011;54864;52.002;5.468;2023-03-01T01:32:56;13.40;;;10.32;;
68074;SDS011;54864;52.002;5.468;2023-03-01T01:33:57;10.67;;;9.10;;
68074;SDS011;54864;52.002;5.468;2023-03-01T01:35:00;11.75;;;9.60;;
68074;SDS011;54864;52.002;5.468;2023-03-01T01:36:01;12.10;;;10.07;;
68074;SDS011;54864;52.002;5.468;2023-03-01T01:37:04;12.82;;;9.77;;
68074;SDS011;54864;52.002;5.468;2023-03-01T01:38:07;13.98;;;10.30;;
68074;SDS011;54864;52.002;5.468;2023-03-01T01:39:09;11.43;;;9.00;;
68074;SDS011;54864;52.002;5.468;2023-03-01T01:40:13;11.35;;;9.48;;
68074;SDS011;54864;52.002;5.468;2023-03-01T01:41:15;12.27;;;9.93;;
68074;SDS011;54864;52.002;5.468;2023-03-01T01:42:17;14.15;;;10.30;;
68074;SDS011;54864;52.002;5.468;2023-03-01T01:43:21;11.20;;;9.32;;
68074;SDS011;54864;52.002;5.468;2023-03-01T01:44:24;12.82;;;10.20;;
68074;SDS011;54864;52.002;5.468;2023-03-01T01:45:31;13.20;;;10.23;;
68074;SDS011;54864;52.002;5.468;2023-03-01T01:46:33;14.65;;;10.07;;
68074;SDS011;54864;52.002;5.468;2023-03-01T01:47:38;12.40;;;9.75;;
68074;SDS011;54864;52.002;5.468;2023-03-01T01:48:41;13.82;;;9.25;;
68074;SDS011;54864;52.002;5.468;2023-03-01T01:49:45;12.52;;;9.30;;
68074;SDS011;54864;52.002;5.468;2023-03-01T01:50:50;11.90;;;9.50;;
68074;SDS011;54864;52.002;5.468;2023-03-01T01:51:58;12.95;;;9.57;;
68074;SDS011;54864;52.002;5.468;2023-03-01T01:53:05;12.37;;;9.37;;
68074;SDS011;54864;52.002;5.468;2023-03-01T01:54:12;14.55;;;9.80;;
68074;SDS011;54864;52.002;5.468;2023-03-01T01:55:19;17.05;;;9.85;;
68074;SDS011;54864;52.002;5.468;2023-03-01T01:56:23;14.68;;;9.60;;
68074;SDS011;54864;52.002;5.468;2023-03-01T01:57:26;12.88;;;9.35;;
68074;SDS011;54864;52.002;5.468;2023-03-01T01:58:33;14.45;;;9.35;;
68074;SDS011;54864;52.002;5.468;2023-03-01T01:59:34;12.98;;;9.48;;
68074;SDS011;54864;52.002;5.468;2023-03-01T02:00:37;11.18;;;9.30;;
68074;SDS011;54864;52.002;5.468;2023-03-01T02:01:39;12.75;;;9.10;;
68074;SDS011;54864;52.002;5.468;2023-03-01T02:02:40;12.98;;;9.30;;
68074;SDS011;54864;52.002;5.468;2023-03-01T02:03:43;10.88;;;9.43;;
68074;SDS011;54864;52.002;5.468;2023-03-01T02:04:48;12.02;;;9.15;;
68074;SDS011;54864;52.002;5.468;2023-03-01T02:05:53;12.80;;;9.73;;
68074;SDS011;54864;52.002;5.468;2023-03-01T02:07:01;12.32;;;9.23;;
68074;SDS011;54864;52.002;5.468;2023-03-01T02:08:06;12.35;;;9.52;;
68074;SDS011;54864;52.002;5.468;2023-03-01T02:09:12;12.07;;;9.30;;
68074;SDS011;54864;52.002;5.468;2023-03-01T02:10:16;13.00;;;9.63;;
68074;SDS011;54864;52.002;5.468;2023-03-01T02:11:18;14.15;;;9.40;;
68074;SDS011;54864;52.002;5.468;2023-03-01T02:12:21;14.02;;;9.60;;
68074;SDS011;54864;52.002;5.468;2023-03-01T02:13:25;15.05;;;9.05;;
68074;SDS011;54864;52.002;5.468;2023-03-01T02:14:26;15.15;;;9.90;;
68074;SDS011;54864;52.002;5.468;2023-03-01T02:15:28;12.63;;;8.90;;
68074;SDS011;54864;52.002;5.468;2023-03-01T02:16:32;12.30;;;9.63;;
68074;SDS011;54864;52.002;5.468;2023-03-01T02:17:34;14.13;;;9.52;;
68074;SDS011;54864;52.002;5.468;2023-03-01T02:18:36;12.43;;;8.95;;
68074;SDS011;54864;52.002;5.468;2023-03-01T02:19:42;12.45;;;8.52;;
68074;SDS011;54864;52.002;5.468;2023-03-01T02:20:56;12.60;;;9.10;;
68074;SDS011;54864;52.002;5.468;2023-03-01T02:22:07;12.32;;;9.50;;
68074;SDS011;54864;52.002;5.468;2023-03-01T02:23:16;12.23;;;9.02;;
68074;SDS011;54864;52.002;5.468;2023-03-01T02:24:21;12.82;;;9.73;;
68074;SDS011;54864;52.002;5.468;2023-03-01T02:25:33;12.57;;;8.95;;
68074;SDS011;54864;52.002;5.468;2023-03-01T02:26:42;14.13;;;9.95;;
68074;SDS011;54864;52.002;5.468;2023-03-01T02:27:49;11.88;;;9.38;;
68074;SDS011;54864;52.002;5.468;2023-03-01T02:28:58;15.50;;;9.68;;
68074;SDS011;54864;52.002;5.468;2023-03-01T02:29:59;13.23;;;9.30;;
68074;SDS011;54864;52.002;5.468;2023-03-01T02:31:01;13.43;;;9.70;;
68074;SDS011;54864;52.002;5.468;2023-03-01T02:32:23;11.02;;;9.05;;
68074;SDS011;54864;52.002;5.468;2023-03-01T02:33:25;11.18;;;9.75;;
68074;SDS011;54864;52.002;5.468;2023-03-01T02:34:27;13.27;;;9.60;;
68074;SDS011;54864;52.002;5.468;2023-03-01T02:35:31;14.23;;;10.43;;
68074;SDS011;54864;52.002;5.468;2023-03-01T02:36:37;14.52;;;10.15;;
68074;SDS011;54864;52.002;5.468;2023-03-01T02:37:40;13.70;;;10.77;;
68074;SDS011;54864;52.002;5.468;2023-03-01T02:38:43;13.35;;;10.77;;
68074;SDS011;54864;52.002;5.468;2023-03-01T02:39:46;17.95;;;11.57;;
68074;SDS011;54864;52.002;5.468;2023-03-01T02:40:51;12.32;;;10.45;;
68074;SDS011;54864;52.002;5.468;2023-03-01T02:41:53;14.80;;;10.43;;
68074;SDS011;54864;52.002;5.468;2023-03-01T02:42:57;14.18;;;10.40;;
68074;SDS011;54864;52.002;5.468;2023-03-01T02:44:00;14.23;;;10.15;;
68074;SDS011;54864;52.002;5.468;2023-03-01T02:45:09;15.13;;;10.80;;
68074;SDS011;54864;52.002;5.468;2023-03-01T02:46:13;15.07;;;10.65;;
68074;SDS011;54864;52.002;5.468;2023-03-01T02:47:17;14.43;;;10.75;;
68074;SDS011;54864;52.002;5.468;2023-03-01T02:48:18;17.67;;;11.00;;
68074;SDS011;54864;52.002;5.468;2023-03-01T02:49:23;15.40;;;10.75;;
68074;SDS011;54864;52.002;5.468;2023-03-01T02:50:34;13.65;;;10.35;;
68074;SDS011;54864;52.002;5.468;2023-03-01T02:53:32;14.73;;;10.85;;
68074;SDS011;54864;52.002;5.468;2023-03-01T02:54:40;13.77;;;10.40;;
68074;SDS011;54864;52.002;5.468;2023-03-01T02:55:45;16.40;;;11.80;;
68074;SDS011;54864;52.002;5.468;2023-03-01T02:56:46;17.65;;;11.38;;
68074;SDS011;54864;52.002;5.468;2023-03-01T02:57:49;15.18;;;11.15;;
68074;SDS011;54864;52.002;5.468;2023-03-01T02:58:51;14.75;;;11.23;;
68074;SDS011;54864;52.002;5.468;2023-03-01T02:59:55;15.75;;;11.15;;
68074;SDS011;54864;52.002;5.468;2023-03-01T03:00:57;13.23;;;10.90;;
68074;SDS011;54864;52.002;5.468;2023-03-01T03:02:01;16.17;;;11.20;;
68074;SDS011;54864;52.002;5.468;2023-03-01T03:03:01;16.98;;;11.45;;
68074;SDS011;54864;52.002;5.468;2023-03-01T03:04:03;17.42;;;11.32;;
68074;SDS011;54864;52.002;5.468;2023-03-01T03:05:06;14.80;;;11.10;;
68074;SDS011;54864;52.002;5.468;2023-03-01T03:06:10;17.77;;;11.32;;
68074;SDS011;54864;52.002;5.468;2023-03-01T03:07:11;15.75;;;11.70;;
68074;SDS011;54864;52.002;5.468;2023-03-01T03:08:14;14.75;;;11.48;;
68074;SDS011;54864;52.002;5.468;2023-03-01T03:09:23;14.60;;;11.15;;
68074;SDS011;54864;52.002;5.468;2023-03-01T03:10:26;16.65;;;11.73;;
68074;SDS011;54864;52.002;5.468;2023-03-01T03:11:29;15.65;;;11.32;;
68074;SDS011;54864;52.002;5.468;2023-03-01T03:12:32;14.50;;;11.18;;
68074;SDS011;54864;52.002;5.468;2023-03-01T03:13:33;13.47;;;10.90;;
68074;SDS011;54864;52.002;5.468;2023-03-01T03:14:34;16.33;;;12.02;;
68074;SDS011;54864;52.002;5.468;2023-03-01T03:15:37;15.10;;;11.32;;
68074;SDS011;54864;52.002;5.468;2023-03-01T03:16:40;14.60;;;10.82;;
68074;SDS011;54864;52.002;5.468;2023-03-01T03:17:41;15.07;;;11.13;;
68074;SDS011;54864;52.002;5.468;2023-03-01T03:18:46;16.23;;;11.13;;
68074;SDS011;54864;52.002;5.468;2023-03-01T03:19:47;14.27;;;11.10;;
68074;SDS011;54864;52.002;5.468;2023-03-01T03:20:49;15.07;;;11.07;;
68074;SDS011;54864;52.002;5.468;2023-03-01T03:21:52;13.27;;;10.88;;
68074;SDS011;54864;52.002;5.468;2023-03-01T03:22:55;14.48;;;11.07;;
68074;SDS011;54864;52.002;5.468;2023-03-01T03:23:56;15.70;;;11.52;;
68074;SDS011;54864;52.002;5.468;2023-03-01T03:24:58;20.65;;;11.82;;
68074;SDS011;54864;52.002;5.468;2023-03-01T03:25:59;15.18;;;11.18;;
68074;SDS011;54864;52.002;5.468;2023-03-01T03:27:01;16.67;;;11.68;;
68074;SDS011;54864;52.002;5.468;2023-03-01T03:28:02;17.57;;;11.70;;
68074;SDS011;54864;52.002;5.468;2023-03-01T03:29:09;17.40;;;11.85;;
68074;SDS011;54864;52.002;5.468;2023-03-01T03:30:11;13.70;;;10.82;;
68074;SDS011;54864;52.002;5.468;2023-03-01T03:31:15;16.30;;;10.98;;
68074;SDS011;54864;52.002;5.468;2023-03-01T03:32:16;14.70;;;10.90;;
68074;SDS011;54864;52.002;5.468;2023-03-01T03:33:18;15.15;;;10.95;;
68074;SDS011;54864;52.002;5.468;2023-03-01T03:34:19;14.48;;;10.90;;
68074;SDS011;54864;52.002;5.468;2023-03-01T03:35:21;15.40;;;11.38;;
68074;SDS011;54864;52.002;5.468;2023-03-01T03:36:24;15.37;;;11.60;;
68074;SDS011;54864;52.002;5.468;2023-03-01T03:37:26;15.57;;;11.40;;
68074;SDS011;54864;52.002;5.468;2023-03-01T03:38:45;15.15;;;11.90;;
68074;SDS011;54864;52.002;5.468;2023-03-01T03:39:48;15.57;;;11.90;;
68074;SDS011;54864;52.002;5.468;2023-03-01T03:40:50;13.80;;;10.90;;
68074;SDS011;54864;52.002;5.468;2023-03-01T03:41:53;15.82;;;11.00;;
68074;SDS011;54864;52.002;5.468;2023-03-01T03:42:54;17.35;;;11.38;;
68074;SDS011;54864;52.002;5.468;2023-03-01T03:43:56;15.02;;;11.30;;
68074;SDS011;54864;52.002;5.468;2023-03-01T03:44:59;16.98;;;11.20;;
68074;SDS011;54864;52.002;5.468;2023-03-01T03:46:02;15.27;;;11.18;;
68074;SDS011;54864;52.002;5.468;2023-03-01T03:47:07;14.65;;;11.18;;
68074;SDS011;54864;52.002;5.468;2023-03-01T03:48:11;14.48;;;11.20;;
68074;SDS011;54864;52.002;5.468;2023-03-01T03:49:12;14.50;;;11.20;;
68074;SDS011;54864;52.002;5.468;2023-03-01T03:50:19;15.93;;;11.68;;
68074;SDS011;54864;52.002;5.468;2023-03-01T03:51:20;18.02;;;11.68;;
68074;SDS011;54864;52.002;5.468;2023-03-01T03:52:22;17.95;;;11.23;;
68074;SDS011;54864;52.002;5.468;2023-03-01T03:53:24;17.08;;;11.38;;
68074;SDS011;54864;52.002;5.468;2023-03-01T03:54:26;16.25;;;12.00;;
68074;SDS011;54864;52.002;5.468;2023-03-01T03:55:27;15.27;;;11.13;;
68074;SDS011;54864;52.002;5.468;2023-03-01T03:56:30;15.13;;;11.38;;
68074;SDS011;54864;52.002;5.468;2023-03-01T03:57:32;18.27;;;11.40;;
68074;SDS011;54864;52.002;5.468;2023-03-01T03:58:33;16.83;;;11.60;;
68074;SDS011;54864;52.002;5.468;2023-03-01T03:59:35;15.63;;;11.10;;
68074;SDS011;54864;52.002;5.468;2023-03-01T04:00:36;16.00;;;11.73;;
68074;SDS011;54864;52.002;5.468;2023-03-01T04:01:40;16.05;;;11.77;;
68074;SDS011;54864;52.002;5.468;2023-03-01T04:02:43;18.60;;;11.45;;
68074;SDS011;54864;52.002;5.468;2023-03-01T04:03:44;16.83;;;11.38;;
68074;SDS011;54864;52.002;5.468;2023-03-01T04:04:47;13.57;;;11.00;;
68074;SDS011;54864;52.002;5.468;2023-03-01T04:05:50;14.00;;;11.15;;
68074;SDS011;54864;52.002;5.468;2023-03-01T04:06:54;15.30;;;11.55;;
68074;SDS011;54864;52.002;5.468;2023-03-01T04:07:55;18.38;;;11.73;;
68074;SDS011;54864;52.002;5.468;2023-03-01T04:09:02;15.27;;;11.25;;
68074;SDS011;54864;52.002;5.468;2023-03-01T04:10:04;15.48;;;11.70;;
68074;SDS011;54864;52.002;5.468;2023-03-01T04:11:08;15.35;;;11.40;;
68074;SDS011;54864;52.002;5.468;2023-03-01T04:12:28;16.35;;;11.48;;
68074;SDS011;54864;52.002;5.468;2023-03-01T04:13:29;14.63;;;11.07;;
68074;SDS011;54864;52.002;5.468;2023-03-01T04:14:31;12.70;;;10.65;;
68074;SDS011;54864;52.002;5.468;2023-03-01T04:15:32;16.57;;;11.47;;
68074;SDS011;54864;52.002;5.468;2023-03-01T04:16:34;15.38;;;9.50;;
68074;SDS011;54864;52.002;5.468;2023-03-01T04:17:35;12.80;;;9.85;;
68074;SDS011;54864;52.002;5.468;2023-03-01T04:18:38;16.08;;;10.90;;
68074;SDS011;54864;52.002;5.468;2023-03-01T04:19:39;13.18;;;10.75;;
68074;SDS011;54864;52.002;5.468;2023-03-01T04:20:44;12.73;;;10.32;;
68074;SDS011;54864;52.002;5.468;2023-03-01T04:21:46;14.07;;;10.43;;
68074;SDS011;54864;52.002;5.468;2023-03-01T04:22:47;12.27;;;10.20;;
68074;SDS011;54864;52.002;5.468;2023-03-01T04:23:48;16.25;;;10.57;;
68074;SDS011;54864;52.002;5.468;2023-03-01T04:24:52;15.18;;;10.88;;
68074;SDS011;54864;52.002;5.468;2023-03-01T04:25:54;13.73;;;10.80;;
68074;SDS011;54864;52.002;5.468;2023-03-01T04:26:57;14.35;;;11.15;;
68074;SDS011;54864;52.002;5.468;2023-03-01T04:27:58;15.18;;;10.85;;
68074;SDS011;54864;52.002;5.468;2023-03-01T04:29:03;14.98;;;10.95;;
68074;SDS011;54864;52.002;5.468;2023-03-01T04:30:05;14.27;;;9.68;;
68074;SDS011;54864;52.002;5.468;2023-03-01T04:31:09;13.82;;;10.30;;
68074;SDS011;54864;52.002;5.468;2023-03-01T04:32:16;14.77;;;10.52;;
68074;SDS011;54864;52.002;5.468;2023-03-01T04:33:18;13.25;;;10.68;;
68074;SDS011;54864;52.002;5.468;2023-03-01T04:34:22;13.77;;;10.38;;
68074;SDS011;54864;52.002;5.468;2023-03-01T04:35:22;14.82;;;10.45;;
68074;SDS011;54864;52.002;5.468;2023-03-01T04:36:25;14.18;;;10.20;;
68074;SDS011;54864;52.002;5.468;2023-03-01T04:37:27;12.13;;;9.27;;
68074;SDS011;54864;52.002;5.468;2023-03-01T04:38:32;15.50;;;10.55;;
68074;SDS011;54864;52.002;5.468;2023-03-01T04:39:33;14.07;;;10.55;;
68074;SDS011;54864;52.002;5.468;2023-03-01T04:40:45;14.95;;;10.73;;
68074;SDS011;54864;52.002;5.468;2023-03-01T04:41:48;13.17;;;10.63;;
68074;SDS011;54864;52.002;5.468;2023-03-01T04:42:48;14.57;;;11.17;;
68074;SDS011;54864;52.002;5.468;2023-03-01T04:43:51;17.10;;;10.70;;
68074;SDS011;54864;52.002;5.468;2023-03-01T04:44:52;13.05;;;10.98;;
68074;SDS011;54864;52.002;5.468;2023-03-01T04:45:53;14.70;;;10.80;;
68074;SDS011;54864;52.002;5.468;2023-03-01T04:46:54;14.13;;;10.27;;
68074;SDS011;54864;52.002;5.468;2023-03-01T04:47:56;13.07;;;10.18;;
68074;SDS011;54864;52.002;5.468;2023-03-01T04:48:58;12.23;;;9.95;;
68074;SDS011;54864;52.002;5.468;2023-03-01T04:50:01;15.00;;;10.13;;
68074;SDS011;54864;52.002;5.468;2023-03-01T04:51:02;15.13;;;10.38;;
68074;SDS011;54864;52.002;5.468;2023-03-01T04:52:05;12.93;;;10.10;;
68074;SDS011;54864;52.002;5.468;2023-03-01T04:53:06;14.38;;;10.27;;
68074;SDS011;54864;52.002;5.468;2023-03-01T04:54:08;15.07;;;10.50;;
68074;SDS011;54864;52.002;5.468;2023-03-01T04:55:09;12.90;;;9.43;;
68074;SDS011;54864;52.002;5.468;2023-03-01T04:56:12;13.57;;;9.82;;
68074;SDS011;54864;52.002;5.468;2023-03-01T04:57:14;14.90;;;9.80;;
68074;SDS011;54864;52.002;5.468;2023-03-01T04:58:15;14.63;;;10.45;;
68074;SDS011;54864;52.002;5.468;2023-03-01T04:59:16;12.73;;;9.88;;
68074;SDS011;54864;52.002;5.468;2023-03-01T05:00:19;14.88;;;9.95;;
68074;SDS011;54864;52.002;5.468;2023-03-01T05:01:20;16.33;;;10.27;;
68074;SDS011;54864;52.002;5.468;2023-03-01T05:02:22;17.23;;;10.55;;
68074;SDS011;54864;52.002;5.468;2023-03-01T05:03:22;12.50;;;10.32;;
68074;SDS011;54864;52.002;5.468;2023-03-01T05:04:24;12.60;;;9.48;;
68074;SDS011;54864;52.002;5.468;2023-03-01T05:05:27;13.85;;;10.30;;
68074;SDS011;54864;52.002;5.468;2023-03-01T05:06:31;15.88;;;9.82;;
68074;SDS011;54864;52.002;5.468;2023-03-01T05:07:33;12.70;;;10.50;;
68074;SDS011;54864;52.002;5.468;2023-03-01T05:08:35;12.40;;;9.65;;
68074;SDS011;54864;52.002;5.468;2023-03-01T05:09:37;13.55;;;10.23;;
68074;SDS011;54864;52.002;5.468;2023-03-01T05:10:38;14.07;;;9.93;;
68074;SDS011;54864;52.002;5.468;2023-03-01T05:11:39;15.60;;;9.87;;
68074;SDS011;54864;52.002;5.468;2023-03-01T05:12:41;13.40;;;9.60;;
68074;SDS011;54864;52.002;5.468;2023-03-01T05:13:41;14.38;;;10.32;;
68074;SDS011;54864;52.002;5.468;2023-03-01T05:14:43;13.50;;;9.65;;
68074;SDS011;54864;52.002;5.468;2023-03-01T05:15:44;13.45;;;9.75;;
68074;SDS011;54864;52.002;5.468;2023-03-01T05:16:46;19.95;;;10.52;;
68074;SDS011;54864;52.002;5.468;2023-03-01T05:17:46;14.07;;;10.57;;
68074;SDS011;54864;52.002;5.468;2023-03-01T05:18:48;12.55;;;9.80;;
68074;SDS011;54864;52.002;5.468;2023-03-01T05:19:51;13.63;;;9.65;;
68074;SDS011;54864;52.002;5.468;2023-03-01T05:20:53;13.48;;;10.15;;
68074;SDS011;54864;52.002;5.468;2023-03-01T05:21:56;12.70;;;9.82;;
68074;SDS011;54864;52.002;5.468;2023-03-01T05:23:04;13.48;;;9.55;;
68074;SDS011;54864;52.002;5.468;2023-03-01T05:24:06;14.77;;;10.32;;
68074;SDS011;54864;52.002;5.468;2023-03-01T05:25:11;15.30;;;9.75;;
68074;SDS011;54864;52.002;5.468;2023-03-01T05:26:14;12.40;;;10.00;;
68074;SDS011;54864;52.002;5.468;2023-03-01T05:27:15;12.18;;;9.80;;
68074;SDS011;54864;52.002;5.468;2023-03-01T05:28:18;11.55;;;9.02;;
68074;SDS011;54864;52.002;5.468;2023-03-01T05:29:20;11.52;;;9.63;;
68074;SDS011;54864;52.002;5.468;2023-03-01T05:30:27;14.32;;;10.38;;
68074;SDS011;54864;52.002;5.468;2023-03-01T05:31:28;13.65;;;10.23;;
68074;SDS011;54864;52.002;5.468;2023-03-01T05:32:33;14.73;;;10.32;;
68074;SDS011;54864;52.002;5.468;2023-03-01T05:33:34;12.25;;;9.25;;
68074;SDS011;54864;52.002;5.468;2023-03-01T05:34:36;13.85;;;9.70;;
68074;SDS011;54864;52.002;5.468;2023-03-01T05:35:39;11.82;;;9.43;;
68074;SDS011;54864;52.002;5.468;2023-03-01T05:36:43;12.95;;;9.50;;
68074;SDS011;54864;52.002;5.468;2023-03-01T05:37:44;12.35;;;9.50;;
68074;SDS011;54864;52.002;5.468;2023-03-01T05:38:48;13.18;;;9.77;;
68074;SDS011;54864;52.002;5.468;2023-03-01T05:39:48;11.98;;;9.57;;
68074;SDS011;54864;52.002;5.468;2023-03-01T05:40:52;15.38;;;9.85;;
68074;SDS011;54864;52.002;5.468;2023-03-01T05:41:53;11.30;;;9.80;;
68074;SDS011;54864;52.002;5.468;2023-03-01T05:42:56;12.55;;;9.15;;
68074;SDS011;54864;52.002;5.468;2023-03-01T05:43:57;13.82;;;10.27;;
68074;SDS011;54864;52.002;5.468;2023-03-01T05:44:59;13.15;;;9.88;;
68074;SDS011;54864;52.002;5.468;2023-03-01T05:46:00;14.50;;;10.25;;
68074;SDS011;54864;52.002;5.468;2023-03-01T05:47:01;13.50;;;10.05;;
68074;SDS011;54864;52.002;5.468;2023-03-01T05:48:02;14.20;;;10.43;;
68074;SDS011;54864;52.002;5.468;2023-03-01T05:49:05;12.60;;;9.75;;
68074;SDS011;54864;52.002;5.468;2023-03-01T05:50:05;12.15;;;9.77;;
68074;SDS011;54864;52.002;5.468;2023-03-01T05:51:08;11.82;;;9.60;;
68074;SDS011;54864;52.002;5.468;2023-03-01T05:52:10;14.57;;;10.20;;
68074;SDS011;54864;52.002;5.468;2023-03-01T05:53:13;14.43;;;10.13;;
68074;SDS011;54864;52.002;5.468;2023-03-01T05:54:17;14.68;;;10.27;;
68074;SDS011;54864;52.002;5.468;2023-03-01T05:55:20;16.23;;;10.00;;
68074;SDS011;54864;52.002;5.468;2023-03-01T05:56:22;12.73;;;9.70;;
68074;SDS011;54864;52.002;5.468;2023-03-01T05:57:23;13.23;;;9.77;;
68074;SDS011;54864;52.002;5.468;2023-03-01T05:58:25;13.90;;;10.60;;
68074;SDS011;54864;52.002;5.468;2023-03-01T05:59:27;13.07;;;9.45;;
68074;SDS011;54864;52.002;5.468;2023-03-01T06:00:29;13.82;;;9.80;;
68074;SDS011;54864;52.002;5.468;2023-03-01T06:01:30;13.40;;;9.85;;
68074;SDS011;54864;52.002;5.468;2023-03-01T06:02:32;15.38;;;10.07;;
68074;SDS011;54864;52.002;5.468;2023-03-01T06:03:33;15.88;;;9.82;;
68074;SDS011;54864;52.002;5.468;2023-03-01T06:04:35;14.48;;;10.68;;
68074;SDS011;54864;52.002;5.468;2023-03-01T06:05:36;12.50;;;9.82;;
68074;SDS011;54864;52.002;5.468;2023-03-01T06:06:38;12.27;;;9.90;;
68074;SDS011;54864;52.002;5.468;2023-03-01T06:07:41;16.57;;;10.43;;
68074;SDS011;54864;52.002;5.468;2023-03-01T06:08:44;13.43;;;10.43;;
68074;SDS011;54864;52.002;5.468;2023-03-01T06:09:44;13.52;;;9.98;;
68074;SDS011;54864;52.002;5.468;2023-03-01T06:10:46;12.57;;;9.48;;
68074;SDS011;54864;52.002;5.468;2023-03-01T06:11:49;14.30;;;10.30;;